sensor_id;sensor_type;location;lat;lon;timestamp;temperature;humidity
30889;DHT22;51092;50.874;7.024;2023-03-05T00:00:38;5.20;97.40
30889;DHT22;51092;50.874;7.024;2023-03-05T00:01:42;5.20;97.40
30889;DHT22;51092;50.874;7.024;2023-03-05T00:02:44;5.20;97.50
30889;DHT22;51092;50.874;7.024;2023-03-05T00:03:47;5.20;97.50
30889;DHT22;51092;50.874;7.024;2023-03-05T00:04:48;5.20;97.40
30889;DHT22;51092;50.874;7.024;2023-03-05T00:05:55;5.10;97.60
30889;DHT22;51092;50.874;7.024;2023-03-05T00:06:58;5.10;97.70
30889;DHT22;51092;50.874;7.024;2023-03-05T00:08:00;5.10;97.70
30889;DHT22;51092;50.874;7.024;2023-03-05T00:09:03;5.20;97.60
30889;DHT22;51092;50.874;7.024;2023-03-05T00:10:07;5.10;97.70
30889;DHT22;51092;50.874;7.024;2023-03-05T00:11:11;5.10;97.80
30889;DHT22;51092;50.874;7.024;2023-03-05T00:12:13;5.10;97.80
30889;DHT22;51092;50.874;7.024;2023-03-05T00:13:15;5.10;97.80
30889;DHT22;51092;50.874;7.024;2023-03-05T00:14:17;5.10;97.90
30889;DHT22;51092;50.874;7.024;2023-03-05T00:15:19;5.10;97.90
30889;DHT22;51092;50.874;7.024;2023-03-05T00:16:22;5.10;98.00
30889;DHT22;51092;50.874;7.024;2023-03-05T00:17:28;5.10;98.00
30889;DHT22;51092;50.874;7.024;2023-03-05T00:18:31;5.10;98.00
30889;DHT22;51092;50.874;7.024;2023-03-05T00:19:32;5.10;98.20
30889;DHT22;51092;50.874;7.024;2023-03-05T00:20:35;5.10;97.90
30889;DHT22;51092;50.874;7.024;2023-03-05T00:21:37;5.10;98.00
30889;DHT22;51092;50.874;7.024;2023-03-05T00:22:40;5.00;98.10
30889;DHT22;51092;50.874;7.024;2023-03-05T00:23:42;5.10;98.10
30889;DHT22;51092;50.874;7.024;2023-03-05T00:24:44;5.00;98.10
30889;DHT22;51092;50.874;7.024;2023-03-05T00:25:46;5.00;98.20
30889;DHT22;51092;50.874;7.024;2023-03-05T00:26:48;5.10;98.00
30889;DHT22;51092;50.874;7.024;2023-03-05T00:27:49;5.10;98.00
30889;DHT22;51092;50.874;7.024;2023-03-05T00:28:53;5.10;98.00
30889;DHT22;51092;50.874;7.024;2023-03-05T00:29:55;5.10;98.00
30889;DHT22;51092;50.874;7.024;2023-03-05T00:30:59;5.00;98.10
30889;DHT22;51092;50.874;7.024;2023-03-05T00:32:01;5.00;98.30
30889;DHT22;51092;50.874;7.024;2023-03-05T00:33:05;5.00;98.20
30889;DHT22;51092;50.874;7.024;2023-03-05T00:34:07;5.00;98.20
30889;DHT22;51092;50.874;7.024;2023-03-05T00:35:10;5.00;98.40
30889;DHT22;51092;50.874;7.024;2023-03-05T00:36:12;5.00;98.30
30889;DHT22;51092;50.874;7.024;2023-03-05T00:37:15;5.00;98.30
30889;DHT22;51092;50.874;7.024;2023-03-05T00:38:16;5.00;98.40
30889;DHT22;51092;50.874;7.024;2023-03-05T00:39:20;5.00;98.30
30889;DHT22;51092;50.874;7.024;2023-03-05T00:40:22;5.00;98.10
30889;DHT22;51092;50.874;7.024;2023-03-05T00:41:24;5.00;98.30
30889;DHT22;51092;50.874;7.024;2023-03-05T00:42:26;5.00;98.20
30889;DHT22;51092;50.874;7.024;2023-03-05T00:43:29;4.90;98.30
30889;DHT22;51092;50.874;7.024;2023-03-05T00:44:30;4.90;98.40
30889;DHT22;51092;50.874;7.024;2023-03-05T00:45:33;5.00;98.30
30889;DHT22;51092;50.874;7.024;2023-03-05T00:46:35;4.90;98.30
30889;DHT22;51092;50.874;7.024;2023-03-05T00:47:37;4.90;98.30
30889;DHT22;51092;50.874;7.024;2023-03-05T00:48:40;4.90;98.30
30889;DHT22;51092;50.874;7.024;2023-03-05T00:49:43;4.90;98.30
30889;DHT22;51092;50.874;7.024;2023-03-05T00:50:45;4.90;98.20
30889;DHT22;51092;50.874;7.024;2023-03-05T00:51:47;4.90;98.30
30889;DHT22;51092;50.874;7.024;2023-03-05T00:52:49;4.90;98.10
30889;DHT22;51092;50.874;7.024;2023-03-05T00:53:51;4.90;98.30
30889;DHT22;51092;50.874;7.024;2023-03-05T00:54:53;4.90;98.30
30889;DHT22;51092;50.874;7.024;2023-03-05T00:55:55;4.80;98.50
30889;DHT22;51092;50.874;7.024;2023-03-05T00:56:57;4.80;98.50
30889;DHT22;51092;50.874;7.024;2023-03-05T00:57:58;4.90;98.60
30889;DHT22;51092;50.874;7.024;2023-03-05T00:59:01;4.80;98.50
30889;DHT22;51092;50.874;7.024;2023-03-05T01:00:04;4.90;98.30
30889;DHT22;51092;50.874;7.024;2023-03-05T01:01:07;4.80;98.40
30889;DHT22;51092;50.874;7.024;2023-03-05T01:02:09;4.80;98.50
30889;DHT22;51092;50.874;7.024;2023-03-05T01:03:11;4.80;98.50
30889;DHT22;51092;50.874;7.024;2023-03-05T01:04:14;4.80;98.50
30889;DHT22;51092;50.874;7.024;2023-03-05T01:05:16;4.80;98.40
30889;DHT22;51092;50.874;7.024;2023-03-05T01:06:18;4.80;98.30
30889;DHT22;51092;50.874;7.024;2023-03-05T01:07:20;4.80;98.30
30889;DHT22;51092;50.874;7.024;2023-03-05T01:08:22;4.80;98.30
30889;DHT22;51092;50.874;7.024;2023-03-05T01:09:24;4.80;98.30
30889;DHT22;51092;50.874;7.024;2023-03-05T01:10:26;4.80;98.30
30889;DHT22;51092;50.874;7.024;2023-03-05T01:11:30;4.80;98.30
30889;DHT22;51092;50.874;7.024;2023-03-05T01:12:33;4.80;98.20
30889;DHT22;51092;50.874;7.024;2023-03-05T01:13:35;4.80;98.10
30889;DHT22;51092;50.874;7.024;2023-03-05T01:14:37;4.90;98.10
30889;DHT22;51092;50.874;7.024;2023-03-05T01:15:39;4.90;97.70
30889;DHT22;51092;50.874;7.024;2023-03-05T01:16:41;4.90;97.70
30889;DHT22;51092;50.874;7.024;2023-03-05T01:17:43;4.90;97.80
30889;DHT22;51092;50.874;7.024;2023-03-05T01:18:45;5.00;97.50
30889;DHT22;51092;50.874;7.024;2023-03-05T01:19:48;5.00;97.40
30889;DHT22;51092;50.874;7.024;2023-03-05T01:20:50;5.10;97.10
30889;DHT22;51092;50.874;7.024;2023-03-05T01:21:52;5.00;97.20
30889;DHT22;51092;50.874;7.024;2023-03-05T01:22:55;5.00;97.30
30889;DHT22;51092;50.874;7.024;2023-03-05T01:23:59;5.00;97.20
30889;DHT22;51092;50.874;7.024;2023-03-05T01:25:01;5.00;97.30
30889;DHT22;51092;50.874;7.024;2023-03-05T01:26:04;4.90;97.60
30889;DHT22;51092;50.874;7.024;2023-03-05T01:27:06;4.80;97.80
30889;DHT22;51092;50.874;7.024;2023-03-05T01:28:08;4.80;98.00
30889;DHT22;51092;50.874;7.024;2023-03-05T01:29:10;4.80;98.00
30889;DHT22;51092;50.874;7.024;2023-03-05T01:30:13;4.80;97.90
30889;DHT22;51092;50.874;7.024;2023-03-05T01:31:15;4.80;97.90
30889;DHT22;51092;50.874;7.024;2023-03-05T01:32:16;4.80;97.80
30889;DHT22;51092;50.874;7.024;2023-03-05T01:33:18;4.80;97.80
30889;DHT22;51092;50.874;7.024;2023-03-05T01:34:19;4.90;97.60
30889;DHT22;51092;50.874;7.024;2023-03-05T01:35:24;4.80;97.70
30889;DHT22;51092;50.874;7.024;2023-03-05T01:36:25;4.80;97.70
30889;DHT22;51092;50.874;7.024;2023-03-05T01:37:28;4.90;97.50
30889;DHT22;51092;50.874;7.024;2023-03-05T01:38:29;4.90;97.40
30889;DHT22;51092;50.874;7.024;2023-03-05T01:39:32;4.90;97.30
30889;DHT22;51092;50.874;7.024;2023-03-05T01:40:34;4.90;97.30
30889;DHT22;51092;50.874;7.024;2023-03-05T01:41:36;4.90;97.30
30889;DHT22;51092;50.874;7.024;2023-03-05T01:42:37;4.90;97.20
30889;DHT22;51092;50.874;7.024;2023-03-05T01:43:40;4.90;97.30
30889;DHT22;51092;50.874;7.024;2023-03-05T01:44:59;4.80;97.30
30889;DHT22;51092;50.874;7.024;2023-03-05T01:46:35;4.80;97.20
30889;DHT22;51092;50.874;7.024;2023-03-05T01:47:38;4.80;97.30
30889;DHT22;51092;50.874;7.024;2023-03-05T01:48:41;4.90;97.20
30889;DHT22;51092;50.874;7.024;2023-03-05T01:49:45;4.80;97.20
30889;DHT22;51092;50.874;7.024;2023-03-05T01:50:49;4.90;97.10
30889;DHT22;51092;50.874;7.024;2023-03-05T01:52:02;4.90;97.00
30889;DHT22;51092;50.874;7.024;2023-03-05T01:53:06;4.90;97.10
30889;DHT22;51092;50.874;7.024;2023-03-05T01:54:09;5.00;96.80
30889;DHT22;51092;50.874;7.024;2023-03-05T01:55:15;5.00;96.90
30889;DHT22;51092;50.874;7.024;2023-03-05T01:56:17;5.00;96.70
30889;DHT22;51092;50.874;7.024;2023-03-05T01:57:22;5.10;96.30
30889;DHT22;51092;50.874;7.024;2023-03-05T01:58:26;5.00;96.40
30889;DHT22;51092;50.874;7.024;2023-03-05T01:59:29;5.00;96.40
30889;DHT22;51092;50.874;7.024;2023-03-05T02:00:36;5.00;96.40
30889;DHT22;51092;50.874;7.024;2023-03-05T02:01:40;5.10;96.20
30889;DHT22;51092;50.874;7.024;2023-03-05T02:02:45;5.10;96.20
30889;DHT22;51092;50.874;7.024;2023-03-05T02:03:47;5.20;96.00
30889;DHT22;51092;50.874;7.024;2023-03-05T02:04:53;5.20;95.90
30889;DHT22;51092;50.874;7.024;2023-03-05T02:05:58;5.20;95.80
30889;DHT22;51092;50.874;7.024;2023-03-05T02:06:59;5.20;95.80
30889;DHT22;51092;50.874;7.024;2023-03-05T02:08:04;5.20;95.90
30889;DHT22;51092;50.874;7.024;2023-03-05T02:09:06;5.00;96.30
30889;DHT22;51092;50.874;7.024;2023-03-05T02:10:16;5.00;96.40
30889;DHT22;51092;50.874;7.024;2023-03-05T02:11:17;5.00;96.50
30889;DHT22;51092;50.874;7.024;2023-03-05T02:12:21;5.00;96.50
30889;DHT22;51092;50.874;7.024;2023-03-05T02:13:25;4.90;96.60
30889;DHT22;51092;50.874;7.024;2023-03-05T02:14:27;4.90;96.80
30889;DHT22;51092;50.874;7.024;2023-03-05T02:15:30;4.90;96.80
30889;DHT22;51092;50.874;7.024;2023-03-05T02:16:32;5.00;96.70
30889;DHT22;51092;50.874;7.024;2023-03-05T02:17:37;5.10;96.40
30889;DHT22;51092;50.874;7.024;2023-03-05T02:18:38;5.10;96.30
30889;DHT22;51092;50.874;7.024;2023-03-05T02:19:48;5.10;96.20
30889;DHT22;51092;50.874;7.024;2023-03-05T02:20:52;5.10;96.30
30889;DHT22;51092;50.874;7.024;2023-03-05T02:21:56;5.20;96.00
30889;DHT22;51092;50.874;7.024;2023-03-05T02:22:57;5.00;96.30
30889;DHT22;51092;50.874;7.024;2023-03-05T02:24:00;5.00;96.60
30889;DHT22;51092;50.874;7.024;2023-03-05T02:25:11;5.00;96.60
30889;DHT22;51092;50.874;7.024;2023-03-05T02:26:14;4.80;96.90
30889;DHT22;51092;50.874;7.024;2023-03-05T02:27:16;4.80;97.00
30889;DHT22;51092;50.874;7.024;2023-03-05T02:28:23;4.80;97.10
30889;DHT22;51092;50.874;7.024;2023-03-05T02:29:27;4.80;97.00
30889;DHT22;51092;50.874;7.024;2023-03-05T02:30:30;4.80;97.10
30889;DHT22;51092;50.874;7.024;2023-03-05T02:31:32;4.80;97.20
30889;DHT22;51092;50.874;7.024;2023-03-05T02:32:34;4.80;97.10
30889;DHT22;51092;50.874;7.024;2023-03-05T02:33:36;4.70;97.30
30889;DHT22;51092;50.874;7.024;2023-03-05T02:34:38;4.70;97.40
30889;DHT22;51092;50.874;7.024;2023-03-05T02:35:40;4.70;97.50
30889;DHT22;51092;50.874;7.024;2023-03-05T02:36:43;4.70;97.50
30889;DHT22;51092;50.874;7.024;2023-03-05T02:37:46;4.70;97.40
30889;DHT22;51092;50.874;7.024;2023-03-05T02:38:49;4.70;97.50
30889;DHT22;51092;50.874;7.024;2023-03-05T02:39:50;4.80;97.30
30889;DHT22;51092;50.874;7.024;2023-03-05T02:40:53;4.80;97.30
30889;DHT22;51092;50.874;7.024;2023-03-05T02:41:54;4.70;97.30
30889;DHT22;51092;50.874;7.024;2023-03-05T02:42:57;4.70;97.40
30889;DHT22;51092;50.874;7.024;2023-03-05T02:43:58;4.60;97.60
30889;DHT22;51092;50.874;7.024;2023-03-05T02:45:01;4.60;97.60
30889;DHT22;51092;50.874;7.024;2023-03-05T02:46:03;4.60;97.60
30889;DHT22;51092;50.874;7.024;2023-03-05T02:47:06;4.70;97.50
30889;DHT22;51092;50.874;7.024;2023-03-05T02:48:08;4.70;97.50
30889;DHT22;51092;50.874;7.024;2023-03-05T02:49:22;4.60;97.70
30889;DHT22;51092;50.874;7.024;2023-03-05T02:50:25;4.60;97.60
30889;DHT22;51092;50.874;7.024;2023-03-05T02:51:27;4.60;97.60
30889;DHT22;51092;50.874;7.024;2023-03-05T02:52:29;4.60;97.60
30889;DHT22;51092;50.874;7.024;2023-03-05T02:53:34;4.60;97.60
30889;DHT22;51092;50.874;7.024;2023-03-05T02:54:35;4.60;97.70
30889;DHT22;51092;50.874;7.024;2023-03-05T02:55:38;4.60;97.60
30889;DHT22;51092;50.874;7.024;2023-03-05T02:56:39;4.60;97.60
30889;DHT22;51092;50.874;7.024;2023-03-05T02:57:43;4.60;97.60
30889;DHT22;51092;50.874;7.024;2023-03-05T02:58:45;4.60;97.70
30889;DHT22;51092;50.874;7.024;2023-03-05T02:59:47;4.50;97.80
30889;DHT22;51092;50.874;7.024;2023-03-05T03:00:49;4.50;97.80
30889;DHT22;51092;50.874;7.024;2023-03-05T03:01:51;4.50;97.90
30889;DHT22;51092;50.874;7.024;2023-03-05T03:02:53;4.50;97.60
30889;DHT22;51092;50.874;7.024;2023-03-05T03:03:55;4.50;97.50
30889;DHT22;51092;50.874;7.024;2023-03-05T03:04:57;4.50;97.50
30889;DHT22;51092;50.874;7.024;2023-03-05T03:05:59;4.50;97.50
30889;DHT22;51092;50.874;7.024;2023-03-05T03:07:01;4.40;97.60
30889;DHT22;51092;50.874;7.024;2023-03-05T03:08:03;4.40;97.70
30889;DHT22;51092;50.874;7.024;2023-03-05T03:09:06;4.40;97.80
30889;DHT22;51092;50.874;7.024;2023-03-05T03:10:10;4.40;97.80
30889;DHT22;51092;50.874;7.024;2023-03-05T03:11:12;4.40;97.80
30889;DHT22;51092;50.874;7.024;2023-03-05T03:12:15;4.40;97.80
30889;DHT22;51092;50.874;7.024;2023-03-05T03:13:16;4.40;97.80
30889;DHT22;51092;50.874;7.024;2023-03-05T03:14:19;4.40;97.80
30889;DHT22;51092;50.874;7.024;2023-03-05T03:15:21;4.40;97.90
30889;DHT22;51092;50.874;7.024;2023-03-05T03:16:23;4.40;97.90
30889;DHT22;51092;50.874;7.024;2023-03-05T03:17:25;4.40;98.00
30889;DHT22;51092;50.874;7.024;2023-03-05T03:18:27;4.40;98.10
30889;DHT22;51092;50.874;7.024;2023-03-05T03:19:29;4.40;98.00
30889;DHT22;51092;50.874;7.024;2023-03-05T03:20:31;4.40;98.20
30889;DHT22;51092;50.874;7.024;2023-03-05T03:21:35;4.40;98.20
30889;DHT22;51092;50.874;7.024;2023-03-05T03:22:37;4.40;98.30
30889;DHT22;51092;50.874;7.024;2023-03-05T03:23:38;4.40;98.40
30889;DHT22;51092;50.874;7.024;2023-03-05T03:24:43;4.40;98.50
30889;DHT22;51092;50.874;7.024;2023-03-05T03:25:44;4.40;98.50
30889;DHT22;51092;50.874;7.024;2023-03-05T03:26:46;4.40;98.60
30889;DHT22;51092;50.874;7.024;2023-03-05T03:27:48;4.40;98.70
30889;DHT22;51092;50.874;7.024;2023-03-05T03:28:51;4.50;98.50
30889;DHT22;51092;50.874;7.024;2023-03-05T03:29:52;4.40;98.50
30889;DHT22;51092;50.874;7.024;2023-03-05T03:30:55;4.40;98.60
30889;DHT22;51092;50.874;7.024;2023-03-05T03:31:56;4.40;98.60
30889;DHT22;51092;50.874;7.024;2023-03-05T03:32:59;4.40;98.60
30889;DHT22;51092;50.874;7.024;2023-03-05T03:34:00;4.40;98.60
30889;DHT22;51092;50.874;7.024;2023-03-05T03:35:03;4.50;98.60
30889;DHT22;51092;50.874;7.024;2023-03-05T03:36:06;4.50;98.30
30889;DHT22;51092;50.874;7.024;2023-03-05T03:37:08;4.50;98.40
30889;DHT22;51092;50.874;7.024;2023-03-05T03:38:10;4.50;98.50
30889;DHT22;51092;50.874;7.024;2023-03-05T03:39:14;4.50;98.40
30889;DHT22;51092;50.874;7.024;2023-03-05T03:40:17;4.50;98.40
30889;DHT22;51092;50.874;7.024;2023-03-05T03:41:20;4.50;98.50
30889;DHT22;51092;50.874;7.024;2023-03-05T03:42:22;4.50;98.60
30889;DHT22;51092;50.874;7.024;2023-03-05T03:43:25;4.50;98.60
30889;DHT22;51092;50.874;7.024;2023-03-05T03:44:26;4.50;98.70
30889;DHT22;51092;50.874;7.024;2023-03-05T03:45:29;4.50;98.70
30889;DHT22;51092;50.874;7.024;2023-03-05T03:46:30;4.50;98.60
30889;DHT22;51092;50.874;7.024;2023-03-05T03:47:33;4.50;98.50
30889;DHT22;51092;50.874;7.024;2023-03-05T03:48:35;4.50;98.60
30889;DHT22;51092;50.874;7.024;2023-03-05T03:49:38;4.50;98.20
30889;DHT22;51092;50.874;7.024;2023-03-05T03:50:40;4.50;98.30
30889;DHT22;51092;50.874;7.024;2023-03-05T03:51:42;4.60;97.90
30889;DHT22;51092;50.874;7.024;2023-03-05T03:52:44;4.50;98.10
30889;DHT22;51092;50.874;7.024;2023-03-05T03:53:46;4.50;98.30
30889;DHT22;51092;50.874;7.024;2023-03-05T03:54:48;4.60;98.00
30889;DHT22;51092;50.874;7.024;2023-03-05T03:55:58;4.60;97.70
30889;DHT22;51092;50.874;7.024;2023-03-05T03:57:00;4.60;97.60
30889;DHT22;51092;50.874;7.024;2023-03-05T03:58:02;4.60;97.40
30889;DHT22;51092;50.874;7.024;2023-03-05T03:59:04;4.70;97.20
30889;DHT22;51092;50.874;7.024;2023-03-05T04:00:08;4.70;97.20
30889;DHT22;51092;50.874;7.024;2023-03-05T04:01:10;4.70;97.00
30889;DHT22;51092;50.874;7.024;2023-03-05T04:02:12;4.70;97.00
30889;DHT22;51092;50.874;7.024;2023-03-05T04:03:14;4.70;97.00
30889;DHT22;51092;50.874;7.024;2023-03-05T04:04:16;4.70;97.00
30889;DHT22;51092;50.874;7.024;2023-03-05T04:05:18;4.60;97.10
30889;DHT22;51092;50.874;7.024;2023-03-05T04:06:21;4.70;97.10
30889;DHT22;51092;50.874;7.024;2023-03-05T04:07:22;4.70;97.10
30889;DHT22;51092;50.874;7.024;2023-03-05T04:08:25;4.60;97.40
30889;DHT22;51092;50.874;7.024;2023-03-05T04:09:26;4.60;97.50
30889;DHT22;51092;50.874;7.024;2023-03-05T04:10:29;4.70;97.10
30889;DHT22;51092;50.874;7.024;2023-03-05T04:11:31;4.70;97.10
30889;DHT22;51092;50.874;7.024;2023-03-05T04:12:34;4.50;97.60
30889;DHT22;51092;50.874;7.024;2023-03-05T04:13:35;4.50;97.80
30889;DHT22;51092;50.874;7.024;2023-03-05T04:14:38;4.50;97.90
30889;DHT22;51092;50.874;7.024;2023-03-05T04:15:39;4.60;97.80
30889;DHT22;51092;50.874;7.024;2023-03-05T04:16:42;4.60;97.60
30889;DHT22;51092;50.874;7.024;2023-03-05T04:17:43;4.70;97.00
30889;DHT22;51092;50.874;7.024;2023-03-05T04:18:46;4.60;97.30
30889;DHT22;51092;50.874;7.024;2023-03-05T04:19:47;4.60;97.30
30889;DHT22;51092;50.874;7.024;2023-03-05T04:20:50;4.60;97.40
30889;DHT22;51092;50.874;7.024;2023-03-05T04:21:51;4.60;97.40
30889;DHT22;51092;50.874;7.024;2023-03-05T04:22:54;4.60;97.30
30889;DHT22;51092;50.874;7.024;2023-03-05T04:23:55;4.70;97.20
30889;DHT22;51092;50.874;7.024;2023-03-05T04:24:58;4.70;97.20
30889;DHT22;51092;50.874;7.024;2023-03-05T04:25:59;4.70;97.10
30889;DHT22;51092;50.874;7.024;2023-03-05T04:27:03;4.80;97.00
30889;DHT22;51092;50.874;7.024;2023-03-05T04:28:05;4.80;97.00
30889;DHT22;51092;50.874;7.024;2023-03-05T04:29:07;4.80;96.80
30889;DHT22;51092;50.874;7.024;2023-03-05T04:30:12;4.80;96.80
30889;DHT22;51092;50.874;7.024;2023-03-05T04:31:15;4.70;96.90
30889;DHT22;51092;50.874;7.024;2023-03-05T04:32:17;4.70;97.20
30889;DHT22;51092;50.874;7.024;2023-03-05T04:33:23;4.70;97.00
30889;DHT22;51092;50.874;7.024;2023-03-05T04:34:24;4.80;96.70
30889;DHT22;51092;50.874;7.024;2023-03-05T04:35:27;4.80;96.70
30889;DHT22;51092;50.874;7.024;2023-03-05T04:36:28;4.80;96.80
30889;DHT22;51092;50.874;7.024;2023-03-05T04:37:31;4.80;96.60
30889;DHT22;51092;50.874;7.024;2023-03-05T04:38:33;4.80;96.60
30889;DHT22;51092;50.874;7.024;2023-03-05T04:39:35;4.80;96.70
30889;DHT22;51092;50.874;7.024;2023-03-05T04:40:37;4.90;96.40
30889;DHT22;51092;50.874;7.024;2023-03-05T04:41:39;4.90;96.40
30889;DHT22;51092;50.874;7.024;2023-03-05T04:42:43;4.80;96.40
30889;DHT22;51092;50.874;7.024;2023-03-05T04:43:45;4.80;96.40
30889;DHT22;51092;50.874;7.024;2023-03-05T04:44:47;4.80;96.50
30889;DHT22;51092;50.874;7.024;2023-03-05T04:45:50;4.70;96.70
30889;DHT22;51092;50.874;7.024;2023-03-05T04:46:51;4.80;96.50
30889;DHT22;51092;50.874;7.024;2023-03-05T04:47:53;4.90;96.40
30889;DHT22;51092;50.874;7.024;2023-03-05T04:48:56;4.80;96.40
30889;DHT22;51092;50.874;7.024;2023-03-05T04:49:58;4.80;96.60
30889;DHT22;51092;50.874;7.024;2023-03-05T04:51:00;4.60;97.10
30889;DHT22;51092;50.874;7.024;2023-03-05T04:52:02;4.50;97.20
30889;DHT22;51092;50.874;7.024;2023-03-05T04:53:04;4.40;97.60
30889;DHT22;51092;50.874;7.024;2023-03-05T04:54:07;4.40;97.50
30889;DHT22;51092;50.874;7.024;2023-03-05T04:55:09;4.40;97.70
30889;DHT22;51092;50.874;7.024;2023-03-05T04:56:12;4.40;97.40
30889;DHT22;51092;50.874;7.024;2023-03-05T04:57:14;4.30;97.60
30889;DHT22;51092;50.874;7.024;2023-03-05T04:58:18;4.30;97.80
30889;DHT22;51092;50.874;7.024;2023-03-05T04:59:20;4.20;98.00
30889;DHT22;51092;50.874;7.024;2023-03-05T05:00:23;4.20;98.10
30889;DHT22;51092;50.874;7.024;2023-03-05T05:01:25;4.20;98.20
30889;DHT22;51092;50.874;7.024;2023-03-05T05:02:27;4.20;98.20
30889;DHT22;51092;50.874;7.024;2023-03-05T05:03:29;4.20;98.30
30889;DHT22;51092;50.874;7.024;2023-03-05T05:04:31;4.20;98.40
30889;DHT22;51092;50.874;7.024;2023-03-05T05:05:33;4.20;98.50
30889;DHT22;51092;50.874;7.024;2023-03-05T05:06:35;4.20;98.50
30889;DHT22;51092;50.874;7.024;2023-03-05T05:07:37;4.20;98.50
30889;DHT22;51092;50.874;7.024;2023-03-05T05:08:39;4.20;98.50
30889;DHT22;51092;50.874;7.024;2023-03-05T05:09:41;4.20;98.40
30889;DHT22;51092;50.874;7.024;2023-03-05T05:10:43;4.20;98.50
30889;DHT22;51092;50.874;7.024;2023-03-05T05:11:45;4.20;98.50
30889;DHT22;51092;50.874;7.024;2023-03-05T05:12:47;4.20;98.50
30889;DHT22;51092;50.874;7.024;2023-03-05T05:13:50;4.20;98.40
30889;DHT22;51092;50.874;7.024;2023-03-05T05:14:52;4.20;98.50
30889;DHT22;51092;50.874;7.024;2023-03-05T05:15:54;4.20;98.50
30889;DHT22;51092;50.874;7.024;2023-03-05T05:16:56;4.20;98.50
30889;DHT22;51092;50.874;7.024;2023-03-05T05:17:58;4.20;98.60
30889;DHT22;51092;50.874;7.024;2023-03-05T05:19:01;4.20;98.60
30889;DHT22;51092;50.874;7.024;2023-03-05T05:20:03;4.20;98.50
30889;DHT22;51092;50.874;7.024;2023-03-05T05:21:07;4.30;98.40
30889;DHT22;51092;50.874;7.024;2023-03-05T05:22:09;4.30;98.50
30889;DHT22;51092;50.874;7.024;2023-03-05T05:23:11;4.30;98.40
30889;DHT22;51092;50.874;7.024;2023-03-05T05:24:13;4.30;98.30
30889;DHT22;51092;50.874;7.024;2023-03-05T05:25:15;4.30;98.40
30889;DHT22;51092;50.874;7.024;2023-03-05T05:26:17;4.30;98.40
30889;DHT22;51092;50.874;7.024;2023-03-05T05:27:22;4.30;98.50
30889;DHT22;51092;50.874;7.024;2023-03-05T05:28:23;4.30;98.40
30889;DHT22;51092;50.874;7.024;2023-03-05T05:29:27;4.30;98.40
30889;DHT22;51092;50.874;7.024;2023-03-05T05:30:28;4.30;98.70
30889;DHT22;51092;50.874;7.024;2023-03-05T05:31:31;4.40;98.30
30889;DHT22;51092;50.874;7.024;2023-03-05T05:32:33;4.40;98.00
30889;DHT22;51092;50.874;7.024;2023-03-05T05:33:36;4.40;98.20
30889;DHT22;51092;50.874;7.024;2023-03-05T05:34:37;4.40;98.30
30889;DHT22;51092;50.874;7.024;2023-03-05T05:35:39;4.50;98.10
30889;DHT22;51092;50.874;7.024;2023-03-05T05:36:41;4.50;97.90
30889;DHT22;51092;50.874;7.024;2023-03-05T05:37:43;4.50;97.80
30889;DHT22;51092;50.874;7.024;2023-03-05T05:38:45;4.40;98.10
30889;DHT22;51092;50.874;7.024;2023-03-05T05:39:47;4.50;98.10
30889;DHT22;51092;50.874;7.024;2023-03-05T05:40:50;4.50;97.90
30889;DHT22;51092;50.874;7.024;2023-03-05T05:41:52;4.40;98.10
30889;DHT22;51092;50.874;7.024;2023-03-05T05:42:54;4.40;98.40
30889;DHT22;51092;50.874;7.024;2023-03-05T05:43:56;4.40;98.40
30889;DHT22;51092;50.874;7.024;2023-03-05T05:44:59;4.50;98.10
30889;DHT22;51092;50.874;7.024;2023-03-05T05:46:04;4.50;97.80
30889;DHT22;51092;50.874;7.024;2023-03-05T05:47:06;4.60;97.70
30889;DHT22;51092;50.874;7.024;2023-03-05T05:48:09;4.70;97.40
30889;DHT22;51092;50.874;7.024;2023-03-05T05:49:11;4.70;97.10
30889;DHT22;51092;50.874;7.024;2023-03-05T05:50:14;4.70;97.10
30889;DHT22;51092;50.874;7.024;2023-03-05T05:51:18;4.60;97.30
30889;DHT22;51092;50.874;7.024;2023-03-05T05:52:21;4.60;97.30
30889;DHT22;51092;50.874;7.024;2023-03-05T05:53:23;4.60;97.40
30889;DHT22;51092;50.874;7.024;2023-03-05T05:54:26;4.70;97.10
30889;DHT22;51092;50.874;7.024;2023-03-05T05:55:27;4.70;97.00
30889;DHT22;51092;50.874;7.024;2023-03-05T05:56:30;4.70;97.00
30889;DHT22;51092;50.874;7.024;2023-03-05T05:57:31;4.60;97.20
30889;DHT22;51092;50.874;7.024;2023-03-05T05:58:34;4.70;97.40
30889;DHT22;51092;50.874;7.024;2023-03-05T05:59:35;4.70;97.30
30889;DHT22;51092;50.874;7.024;2023-03-05T06:00:40;4.80;97.00
30889;DHT22;51092;50.874;7.024;2023-03-05T06:01:41;4.80;96.80
30889;DHT22;51092;50.874;7.024;2023-03-05T06:02:43;4.70;96.80
30889;DHT22;51092;50.874;7.024;2023-03-05T06:03:45;4.60;97.10
30889;DHT22;51092;50.874;7.024;2023-03-05T06:04:48;4.50;97.40
30889;DHT22;51092;50.874;7.024;2023-03-05T06:05:49;4.50;97.50
30889;DHT22;51092;50.874;7.024;2023-03-05T06:06:52;4.50;97.90
30889;DHT22;51092;50.874;7.024;2023-03-05T06:07:54;4.50;97.60
30889;DHT22;51092;50.874;7.024;2023-03-05T06:08:56;4.50;97.50
30889;DHT22;51092;50.874;7.024;2023-03-05T06:09:58;4.40;97.60
30889;DHT22;51092;50.874;7.024;2023-03-05T06:11:00;4.50;97.70
30889;DHT22;51092;50.874;7.024;2023-03-05T06:12:02;4.50;97.60
30889;DHT22;51092;50.874;7.024;2023-03-05T06:13:05;4.50;97.70
30889;DHT22;51092;50.874;7.024;2023-03-05T06:14:06;4.60;97.20
30889;DHT22;51092;50.874;7.024;2023-03-05T06:15:09;4.60;97.20
30889;DHT22;51092;50.874;7.024;2023-03-05T06:16:14;4.70;97.20
30889;DHT22;51092;50.874;7.024;2023-03-05T06:17:17;4.70;97.00
30889;DHT22;51092;50.874;7.024;2023-03-05T06:18:19;4.70;96.60
30889;DHT22;51092;50.874;7.024;2023-03-05T06:19:21;4.60;96.90
30889;DHT22;51092;50.874;7.024;2023-03-05T06:20:23;4.60;97.20
30889;DHT22;51092;50.874;7.024;2023-03-05T06:21:25;4.60;97.10
30889;DHT22;51092;50.874;7.024;2023-03-05T06:22:27;4.50;97.10
30889;DHT22;51092;50.874;7.024;2023-03-05T06:23:29;4.60;97.20
30889;DHT22;51092;50.874;7.024;2023-03-05T06:24:31;4.60;97.10
30889;DHT22;51092;50.874;7.024;2023-03-05T06:25:33;4.60;97.00
30889;DHT22;51092;50.874;7.024;2023-03-05T06:26:34;4.60;97.00
30889;DHT22;51092;50.874;7.024;2023-03-05T06:27:37;4.50;97.30
30889;DHT22;51092;50.874;7.024;2023-03-05T06:28:39;4.60;97.10
30889;DHT22;51092;50.874;7.024;2023-03-05T06:29:42;4.60;97.20
30889;DHT22;51092;50.874;7.024;2023-03-05T06:30:43;4.60;97.10
30889;DHT22;51092;50.874;7.024;2023-03-05T06:31:47;4.60;97.00
30889;DHT22;51092;50.874;7.024;2023-03-05T06:32:49;4.70;96.80
30889;DHT22;51092;50.874;7.024;2023-03-05T06:33:52;4.60;96.80
30889;DHT22;51092;50.874;7.024;2023-03-05T06:34:54;4.60;97.00
30889;DHT22;51092;50.874;7.024;2023-03-05T06:35:57;4.60;97.10
30889;DHT22;51092;50.874;7.024;2023-03-05T06:36:58;4.60;97.40
30889;DHT22;51092;50.874;7.024;2023-03-05T06:38:00;4.70;97.00
30889;DHT22;51092;50.874;7.024;2023-03-05T06:39:02;4.70;96.70
30889;DHT22;51092;50.874;7.024;2023-03-05T06:40:07;4.70;96.80
30889;DHT22;51092;50.874;7.024;2023-03-05T06:41:10;4.70;96.70
30889;DHT22;51092;50.874;7.024;2023-03-05T06:42:13;4.70;96.80